sensor_id;sensor_type;location;lat;lon;timestamp;P1;durP1;ratioP1;P2;durP2;ratioP2
70796;SDS011;63842;52.144;5.360;2023-02-28T00:01:13;5.72;;;2.08;;
70796;SDS011;63842;52.144;5.360;2023-02-28T00:03:41;6.88;;;2.35;;
70796;SDS011;63842;52.144;5.360;2023-02-28T00:06:09;9.48;;;2.40;;
70796;SDS011;63842;52.144;5.360;2023-02-28T00:08:37;7.15;;;2.22;;
70796;SDS011;63842;52.144;5.360;2023-02-28T00:11:05;8.35;;;2.63;;
70796;SDS011;63842;52.144;5.360;2023-02-28T00:13:33;7.15;;;2.50;;
70796;SDS011;63842;52.144;5.360;2023-02-28T00:16:02;7.50;;;2.20;;
70796;SDS011;63842;52.144;5.360;2023-02-28T00:18:29;7.95;;;2.65;;
70796;SDS011;63842;52.144;5.360;2023-02-28T00:20:57;9.45;;;2.65;;
70796;SDS011;63842;52.144;5.360;2023-02-28T00:23:25;8.80;;;2.63;;
70796;SDS011;63842;52.144;5.360;2023-02-28T00:25:52;6.50;;;2.50;;
70796;SDS011;63842;52.144;5.360;2023-02-28T00:28:20;7.03;;;2.42;;
70796;SDS011;63842;52.144;5.360;2023-02-28T00:30:48;9.50;;;2.67;;
70796;SDS011;63842;52.144;5.360;2023-02-28T00:33:15;7.05;;;2.40;;
70796;SDS011;63842;52.144;5.360;2023-02-28T00:35:43;6.53;;;2.20;;
70796;SDS011;63842;52.144;5.360;2023-02-28T00:38:13;8.90;;;2.67;;
70796;SDS011;63842;52.144;5.360;2023-02-28T00:40:40;6.88;;;2.28;;
70796;SDS011;63842;52.144;5.360;2023-02-28T00:43:10;7.22;;;2.30;;
70796;SDS011;63842;52.144;5.360;2023-02-28T00:45:37;8.68;;;2.55;;
70796;SDS011;63842;52.144;5.360;2023-02-28T00:48:04;7.60;;;2.72;;
70796;SDS011;63842;52.144;5.360;2023-02-28T00:50:32;9.13;;;2.60;;
70796;SDS011;63842;52.144;5.360;2023-02-28T00:53:00;8.32;;;2.47;;
70796;SDS011;63842;52.144;5.360;2023-02-28T00:55:27;8.27;;;2.58;;
70796;SDS011;63842;52.144;5.360;2023-02-28T00:57:54;7.32;;;2.40;;
70796;SDS011;63842;52.144;5.360;2023-02-28T01:00:22;7.25;;;2.55;;
70796;SDS011;63842;52.144;5.360;2023-02-28T01:02:49;8.20;;;2.35;;
70796;SDS011;63842;52.144;5.360;2023-02-28T01:05:17;6.93;;;2.58;;
70796;SDS011;63842;52.144;5.360;2023-02-28T01:07:44;7.45;;;2.50;;
70796;SDS011;63842;52.144;5.360;2023-02-28T01:10:11;10.48;;;2.85;;
70796;SDS011;63842;52.144;5.360;2023-02-28T01:12:39;8.55;;;2.40;;
70796;SDS011;63842;52.144;5.360;2023-02-28T01:15:09;7.38;;;2.30;;
70796;SDS011;63842;52.144;5.360;2023-02-28T01:17:36;6.32;;;2.30;;
70796;SDS011;63842;52.144;5.360;2023-02-28T01:20:04;8.10;;;2.60;;
70796;SDS011;63842;52.144;5.360;2023-02-28T01:22:31;6.68;;;2.20;;
70796;SDS011;63842;52.144;5.360;2023-02-28T01:24:59;8.07;;;2.40;;
70796;SDS011;63842;52.144;5.360;2023-02-28T01:27:27;6.75;;;2.25;;
70796;SDS011;63842;52.144;5.360;2023-02-28T01:29:55;6.07;;;2.30;;
70796;SDS011;63842;52.144;5.360;2023-02-28T01:32:22;7.03;;;2.42;;
70796;SDS011;63842;52.144;5.360;2023-02-28T01:34:50;8.20;;;2.45;;
70796;SDS011;63842;52.144;5.360;2023-02-28T01:37:17;6.55;;;2.13;;
70796;SDS011;63842;52.144;5.360;2023-02-28T01:39:44;7.15;;;2.40;;
70796;SDS011;63842;52.144;5.360;2023-02-28T01:42:12;7.68;;;2.28;;
70796;SDS011;63842;52.144;5.360;2023-02-28T01:47:23;6.60;;;2.17;;
70796;SDS011;63842;52.144;5.360;2023-02-28T01:49:52;7.95;;;2.70;;
70796;SDS011;63842;52.144;5.360;2023-02-28T01:52:20;6.95;;;2.65;;
70796;SDS011;63842;52.144;5.360;2023-02-28T01:54:50;7.20;;;2.35;;
70796;SDS011;63842;52.144;5.360;2023-02-28T01:57:18;8.07;;;2.40;;
70796;SDS011;63842;52.144;5.360;2023-02-28T02:02:18;6.13;;;2.20;;
70796;SDS011;63842;52.144;5.360;2023-02-28T02:04:48;7.65;;;2.63;;
70796;SDS011;63842;52.144;5.360;2023-02-28T02:07:17;8.85;;;2.55;;
70796;SDS011;63842;52.144;5.360;2023-02-28T02:09:45;6.70;;;2.38;;
70796;SDS011;63842;52.144;5.360;2023-02-28T02:12:43;7.78;;;2.65;;
70796;SDS011;63842;52.144;5.360;2023-02-28T02:17:54;7.80;;;2.45;;
70796;SDS011;63842;52.144;5.360;2023-02-28T02:25:42;8.25;;;2.58;;
70796;SDS011;63842;52.144;5.360;2023-02-28T02:38:49;8.13;;;2.60;;
70796;SDS011;63842;52.144;5.360;2023-02-28T02:41:28;6.97;;;2.47;;
70796;SDS011;63842;52.144;5.360;2023-02-28T02:44:15;7.88;;;2.85;;
70796;SDS011;63842;52.144;5.360;2023-02-28T02:46:44;7.18;;;2.38;;
70796;SDS011;63842;52.144;5.360;2023-02-28T02:49:17;7.53;;;2.95;;
70796;SDS011;63842;52.144;5.360;2023-02-28T02:51:47;7.07;;;2.40;;
70796;SDS011;63842;52.144;5.360;2023-02-28T02:54:17;8.32;;;2.90;;
70796;SDS011;63842;52.144;5.360;2023-02-28T02:56:47;8.18;;;2.88;;
70796;SDS011;63842;52.144;5.360;2023-02-28T02:59:16;8.98;;;3.25;;
70796;SDS011;63842;52.144;5.360;2023-02-28T03:01:58;9.27;;;2.67;;
70796;SDS011;63842;52.144;5.360;2023-02-28T03:04:28;7.82;;;2.92;;
70796;SDS011;63842;52.144;5.360;2023-02-28T03:06:57;10.40;;;2.92;;
70796;SDS011;63842;52.144;5.360;2023-02-28T03:09:25;8.25;;;2.75;;
70796;SDS011;63842;52.144;5.360;2023-02-28T03:11:54;7.70;;;2.40;;
70796;SDS011;63842;52.144;5.360;2023-02-28T03:22:38;8.13;;;2.65;;
70796;SDS011;63842;52.144;5.360;2023-02-28T03:27:39;8.65;;;2.80;;
70796;SDS011;63842;52.144;5.360;2023-02-28T03:33:02;8.35;;;2.50;;
70796;SDS011;63842;52.144;5.360;2023-02-28T03:35:32;9.63;;;2.90;;
70796;SDS011;63842;52.144;5.360;2023-02-28T03:38:09;7.47;;;2.70;;
70796;SDS011;63842;52.144;5.360;2023-02-28T03:40:41;6.95;;;2.72;;
70796;SDS011;63842;52.144;5.360;2023-02-28T03:43:11;7.50;;;2.83;;
70796;SDS011;63842;52.144;5.360;2023-02-28T03:45:39;8.07;;;2.47;;
70796;SDS011;63842;52.144;5.360;2023-02-28T03:48:12;7.88;;;2.53;;
70796;SDS011;63842;52.144;5.360;2023-02-28T03:50:41;7.13;;;2.67;;
70796;SDS011;63842;52.144;5.360;2023-02-28T03:55:50;7.50;;;2.70;;
70796;SDS011;63842;52.144;5.360;2023-02-28T03:58:27;8.38;;;2.85;;
70796;SDS011;63842;52.144;5.360;2023-02-28T04:00:59;9.10;;;3.03;;
70796;SDS011;63842;52.144;5.360;2023-02-28T04:03:38;8.45;;;2.75;;
70796;SDS011;63842;52.144;5.360;2023-02-28T04:06:06;7.72;;;2.70;;
70796;SDS011;63842;52.144;5.360;2023-02-28T04:08:34;10.02;;;3.25;;
70796;SDS011;63842;52.144;5.360;2023-02-28T04:11:03;9.07;;;3.00;;
70796;SDS011;63842;52.144;5.360;2023-02-28T04:13:32;9.48;;;3.05;;
70796;SDS011;63842;52.144;5.360;2023-02-28T04:15:59;10.07;;;3.10;;
70796;SDS011;63842;52.144;5.360;2023-02-28T04:18:27;9.13;;;3.03;;
70796;SDS011;63842;52.144;5.360;2023-02-28T04:20:54;8.82;;;3.28;;
70796;SDS011;63842;52.144;5.360;2023-02-28T04:23:22;7.35;;;2.83;;
70796;SDS011;63842;52.144;5.360;2023-02-28T04:25:49;8.52;;;3.28;;
70796;SDS011;63842;52.144;5.360;2023-02-28T04:28:17;7.45;;;2.63;;
70796;SDS011;63842;52.144;5.360;2023-02-28T04:30:44;8.30;;;2.70;;
70796;SDS011;63842;52.144;5.360;2023-02-28T04:33:12;9.38;;;3.15;;
70796;SDS011;63842;52.144;5.360;2023-02-28T04:35:39;7.05;;;2.75;;
70796;SDS011;63842;52.144;5.360;2023-02-28T04:38:06;9.20;;;2.67;;
70796;SDS011;63842;52.144;5.360;2023-02-28T04:40:34;7.53;;;2.40;;
70796;SDS011;63842;52.144;5.360;2023-02-28T04:43:02;6.18;;;2.30;;
70796;SDS011;63842;52.144;5.360;2023-02-28T04:45:29;6.90;;;2.30;;
70796;SDS011;63842;52.144;5.360;2023-02-28T04:47:58;6.63;;;2.30;;
70796;SDS011;63842;52.144;5.360;2023-02-28T04:50:25;10.00;;;2.33;;
70796;SDS011;63842;52.144;5.360;2023-02-28T04:52:53;7.03;;;2.55;;
70796;SDS011;63842;52.144;5.360;2023-02-28T04:55:20;8.57;;;2.53;;
70796;SDS011;63842;52.144;5.360;2023-02-28T04:57:48;6.32;;;2.55;;
70796;SDS011;63842;52.144;5.360;2023-02-28T05:00:15;6.70;;;2.40;;
70796;SDS011;63842;52.144;5.360;2023-02-28T05:02:42;6.97;;;2.63;;
70796;SDS011;63842;52.144;5.360;2023-02-28T05:05:10;5.63;;;1.90;;
70796;SDS011;63842;52.144;5.360;2023-02-28T05:07:42;7.60;;;2.35;;
70796;SDS011;63842;52.144;5.360;2023-02-28T05:10:10;6.05;;;2.25;;
70796;SDS011;63842;52.144;5.360;2023-02-28T05:12:38;7.20;;;2.30;;
70796;SDS011;63842;52.144;5.360;2023-02-28T05:15:05;5.80;;;2.20;;
70796;SDS011;63842;52.144;5.360;2023-02-28T05:17:32;7.28;;;2.40;;
70796;SDS011;63842;52.144;5.360;2023-02-28T05:20:00;7.72;;;2.45;;
70796;SDS011;63842;52.144;5.360;2023-02-28T05:22:41;8.88;;;2.22;;
70796;SDS011;63842;52.144;5.360;2023-02-28T05:25:11;5.60;;;2.15;;
70796;SDS011;63842;52.144;5.360;2023-02-28T05:27:39;5.60;;;2.08;;
70796;SDS011;63842;52.144;5.360;2023-02-28T05:30:07;5.78;;;2.20;;
70796;SDS011;63842;52.144;5.360;2023-02-28T05:32:37;8.02;;;2.38;;
70796;SDS011;63842;52.144;5.360;2023-02-28T05:35:05;5.43;;;2.05;;
70796;SDS011;63842;52.144;5.360;2023-02-28T05:37:32;6.88;;;2.58;;
70796;SDS011;63842;52.144;5.360;2023-02-28T05:39:59;7.07;;;2.40;;
70796;SDS011;63842;52.144;5.360;2023-02-28T05:42:27;6.40;;;2.35;;
70796;SDS011;63842;52.144;5.360;2023-02-28T05:44:54;7.15;;;2.35;;
70796;SDS011;63842;52.144;5.360;2023-02-28T05:47:21;7.55;;;2.40;;
70796;SDS011;63842;52.144;5.360;2023-02-28T05:49:49;6.85;;;2.22;;
70796;SDS011;63842;52.144;5.360;2023-02-28T05:52:16;6.88;;;2.75;;
70796;SDS011;63842;52.144;5.360;2023-02-28T05:54:43;6.88;;;2.30;;
70796;SDS011;63842;52.144;5.360;2023-02-28T05:57:11;6.88;;;2.42;;
70796;SDS011;63842;52.144;5.360;2023-02-28T05:59:49;6.13;;;2.08;;
70796;SDS011;63842;52.144;5.360;2023-02-28T06:02:17;6.53;;;2.88;;
70796;SDS011;63842;52.144;5.360;2023-02-28T06:04:44;8.02;;;2.42;;
70796;SDS011;63842;52.144;5.360;2023-02-28T06:07:12;7.05;;;2.35;;
70796;SDS011;63842;52.144;5.360;2023-02-28T06:09:39;6.88;;;2.50;;
70796;SDS011;63842;52.144;5.360;2023-02-28T06:12:07;6.95;;;2.53;;
70796;SDS011;63842;52.144;5.360;2023-02-28T06:14:36;7.47;;;2.58;;
70796;SDS011;63842;52.144;5.360;2023-02-28T06:17:04;6.85;;;2.58;;
70796;SDS011;63842;52.144;5.360;2023-02-28T06:19:32;7.05;;;2.40;;
70796;SDS011;63842;52.144;5.360;2023-02-28T06:22:00;6.80;;;2.42;;
70796;SDS011;63842;52.144;5.360;2023-02-28T06:24:27;6.88;;;2.58;;
70796;SDS011;63842;52.144;5.360;2023-02-28T06:26:54;5.43;;;2.15;;
70796;SDS011;63842;52.144;5.360;2023-02-28T06:29:22;7.00;;;2.40;;
70796;SDS011;63842;52.144;5.360;2023-02-28T06:31:49;6.88;;;2.40;;
70796;SDS011;63842;52.144;5.360;2023-02-28T06:34:16;7.85;;;2.60;;
70796;SDS011;63842;52.144;5.360;2023-02-28T06:36:44;6.20;;;2.40;;
70796;SDS011;63842;52.144;5.360;2023-02-28T06:39:11;7.97;;;2.40;;
70796;SDS011;63842;52.144;5.360;2023-02-28T06:41:38;6.97;;;2.60;;
70796;SDS011;63842;52.144;5.360;2023-02-28T06:44:21;7.30;;;2.45;;
70796;SDS011;63842;52.144;5.360;2023-02-28T06:46:48;9.00;;;3.00;;
70796;SDS011;63842;52.144;5.360;2023-02-28T06:49:15;7.30;;;2.63;;
70796;SDS011;63842;52.144;5.360;2023-02-28T06:51:44;7.22;;;2.75;;
70796;SDS011;63842;52.144;5.360;2023-02-28T06:54:11;7.22;;;2.65;;
70796;SDS011;63842;52.144;5.360;2023-02-28T06:56:39;8.02;;;2.50;;
70796;SDS011;63842;52.144;5.360;2023-02-28T06:59:06;9.68;;;2.67;;
70796;SDS011;63842;52.144;5.360;2023-02-28T07:01:33;7.15;;;2.75;;
70796;SDS011;63842;52.144;5.360;2023-02-28T07:04:01;7.47;;;2.70;;
70796;SDS011;63842;52.144;5.360;2023-02-28T07:06:28;8.38;;;2.65;;
70796;SDS011;63842;52.144;5.360;2023-02-28T07:08:56;9.63;;;2.88;;
70796;SDS011;63842;52.144;5.360;2023-02-28T07:11:24;8.32;;;2.78;;
70796;SDS011;63842;52.144;5.360;2023-02-28T07:13:52;6.85;;;2.50;;
70796;SDS011;63842;52.144;5.360;2023-02-28T07:16:20;8.13;;;2.80;;
70796;SDS011;63842;52.144;5.360;2023-02-28T07:18:47;6.22;;;2.67;;
70796;SDS011;63842;52.144;5.360;2023-02-28T07:21:15;8.50;;;3.00;;
70796;SDS011;63842;52.144;5.360;2023-02-28T07:23:42;8.52;;;3.13;;
70796;SDS011;63842;52.144;5.360;2023-02-28T07:26:11;9.02;;;2.90;;
70796;SDS011;63842;52.144;5.360;2023-02-28T07:28:41;8.90;;;3.13;;
70796;SDS011;63842;52.144;5.360;2023-02-28T07:31:09;9.07;;;2.70;;
70796;SDS011;63842;52.144;5.360;2023-02-28T07:33:37;8.40;;;3.00;;
70796;SDS011;63842;52.144;5.360;2023-02-28T07:36:05;8.90;;;3.05;;
70796;SDS011;63842;52.144;5.360;2023-02-28T07:38:36;11.70;;;3.10;;
70796;SDS011;63842;52.144;5.360;2023-02-28T07:41:04;9.48;;;3.13;;
70796;SDS011;63842;52.144;5.360;2023-02-28T07:43:32;7.20;;;2.70;;
70796;SDS011;63842;52.144;5.360;2023-02-28T07:46:03;9.00;;;3.55;;
70796;SDS011;63842;52.144;5.360;2023-02-28T07:48:31;8.68;;;3.22;;
70796;SDS011;63842;52.144;5.360;2023-02-28T07:50:58;8.40;;;3.00;;
70796;SDS011;63842;52.144;5.360;2023-02-28T07:53:26;10.55;;;3.28;;
70796;SDS011;63842;52.144;5.360;2023-02-28T07:55:55;8.30;;;2.90;;
70796;SDS011;63842;52.144;5.360;2023-02-28T07:58:23;8.13;;;2.92;;
70796;SDS011;63842;52.144;5.360;2023-02-28T08:00:50;9.93;;;3.60;;
70796;SDS011;63842;52.144;5.360;2023-02-28T08:03:18;8.40;;;3.22;;
70796;SDS011;63842;52.144;5.360;2023-02-28T08:05:45;9.52;;;3.63;;
70796;SDS011;63842;52.144;5.360;2023-02-28T08:08:14;8.10;;;3.60;;
70796;SDS011;63842;52.144;5.360;2023-02-28T08:10:42;9.05;;;3.45;;
70796;SDS011;63842;52.144;5.360;2023-02-28T08:13:09;13.70;;;3.90;;
70796;SDS011;63842;52.144;5.360;2023-02-28T08:15:36;7.18;;;3.03;;
70796;SDS011;63842;52.144;5.360;2023-02-28T08:18:05;9.35;;;3.80;;
70796;SDS011;63842;52.144;5.360;2023-02-28T08:20:35;8.00;;;3.10;;
70796;SDS011;63842;52.144;5.360;2023-02-28T08:23:03;8.70;;;3.33;;
70796;SDS011;63842;52.144;5.360;2023-02-28T08:25:30;12.27;;;3.95;;
70796;SDS011;63842;52.144;5.360;2023-02-28T08:27:57;9.02;;;3.08;;
70796;SDS011;63842;52.144;5.360;2023-02-28T08:30:25;8.38;;;3.40;;
70796;SDS011;63842;52.144;5.360;2023-02-28T08:32:52;9.52;;;3.58;;
70796;SDS011;63842;52.144;5.360;2023-02-28T08:35:19;9.18;;;3.47;;
70796;SDS011;63842;52.144;5.360;2023-02-28T08:37:47;8.27;;;3.05;;
70796;SDS011;63842;52.144;5.360;2023-02-28T08:40:15;10.25;;;3.30;;
70796;SDS011;63842;52.144;5.360;2023-02-28T08:42:45;9.68;;;3.13;;
70796;SDS011;63842;52.144;5.360;2023-02-28T08:45:13;7.93;;;2.92;;
70796;SDS011;63842;52.144;5.360;2023-02-28T08:47:41;6.82;;;2.88;;
70796;SDS011;63842;52.144;5.360;2023-02-28T08:50:08;7.10;;;2.90;;
70796;SDS011;63842;52.144;5.360;2023-02-28T08:52:36;7.72;;;3.13;;
70796;SDS011;63842;52.144;5.360;2023-02-28T08:55:04;7.18;;;2.90;;
70796;SDS011;63842;52.144;5.360;2023-02-28T08:57:32;7.68;;;3.20;;
70796;SDS011;63842;52.144;5.360;2023-02-28T08:59:59;8.68;;;3.28;;
70796;SDS011;63842;52.144;5.360;2023-02-28T09:02:30;8.73;;;3.10;;
70796;SDS011;63842;52.144;5.360;2023-02-28T09:05:00;8.02;;;3.28;;
70796;SDS011;63842;52.144;5.360;2023-02-28T09:11:41;8.38;;;3.03;;
70796;SDS011;63842;52.144;5.360;2023-02-28T09:14:09;8.50;;;3.15;;
70796;SDS011;63842;52.144;5.360;2023-02-28T09:16:36;7.50;;;3.00;;
70796;SDS011;63842;52.144;5.360;2023-02-28T09:19:04;7.03;;;2.80;;
70796;SDS011;63842;52.144;5.360;2023-02-28T09:21:31;7.43;;;2.67;;
70796;SDS011;63842;52.144;5.360;2023-02-28T09:23:58;7.00;;;2.70;;
70796;SDS011;63842;52.144;5.360;2023-02-28T09:26:26;9.80;;;2.80;;
70796;SDS011;63842;52.144;5.360;2023-02-28T09:29:07;8.70;;;2.63;;
70796;SDS011;63842;52.144;5.360;2023-02-28T09:31:35;8.65;;;3.03;;
70796;SDS011;63842;52.144;5.360;2023-02-28T09:34:03;6.63;;;2.78;;
70796;SDS011;63842;52.144;5.360;2023-02-28T09:36:31;7.80;;;2.53;;
70796;SDS011;63842;52.144;5.360;2023-02-28T09:39:10;6.47;;;2.40;;
70796;SDS011;63842;52.144;5.360;2023-02-28T09:41:40;6.03;;;2.35;;
70796;SDS011;63842;52.144;5.360;2023-02-28T09:44:35;7.18;;;2.47;;
70796;SDS011;63842;52.144;5.360;2023-02-28T09:49:44;5.35;;;1.88;;
70796;SDS011;63842;52.144;5.360;2023-02-28T09:52:14;5.80;;;1.98;;
70796;SDS011;63842;52.144;5.360;2023-02-28T09:54:44;6.28;;;1.83;;
70796;SDS011;63842;52.144;5.360;2023-02-28T09:57:45;8.02;;;2.00;;
70796;SDS011;63842;52.144;5.360;2023-02-28T10:05:19;4.63;;;1.60;;
70796;SDS011;63842;52.144;5.360;2023-02-28T10:07:53;4.53;;;1.80;;
70796;SDS011;63842;52.144;5.360;2023-02-28T10:12:53;5.13;;;1.73;;
70796;SDS011;63842;52.144;5.360;2023-02-28T10:15:23;5.45;;;1.60;;
70796;SDS011;63842;52.144;5.360;2023-02-28T10:17:57;5.00;;;2.05;;
70796;SDS011;63842;52.144;5.360;2023-02-28T10:20:35;4.78;;;1.70;;
70796;SDS011;63842;52.144;5.360;2023-02-28T10:23:21;5.10;;;1.77;;
70796;SDS011;63842;52.144;5.360;2023-02-28T10:26:22;6.80;;;2.08;;
70796;SDS011;63842;52.144;5.360;2023-02-28T10:28:42;5.93;;;2.00;;
70796;SDS011;63842;52.144;5.360;2023-02-28T10:31:11;5.60;;;1.95;;
70796;SDS011;63842;52.144;5.360;2023-02-28T10:33:43;4.95;;;1.80;;
70796;SDS011;63842;52.144;5.360;2023-02-28T10:36:13;4.80;;;1.70;;
70796;SDS011;63842;52.144;5.360;2023-02-28T10:38:41;5.75;;;1.80;;
70796;SDS011;63842;52.144;5.360;2023-02-28T10:41:15;4.55;;;1.80;;
70796;SDS011;63842;52.144;5.360;2023-02-28T10:43:43;5.10;;;1.73;;
70796;SDS011;63842;52.144;5.360;2023-02-28T10:46:18;4.15;;;1.90;;
70796;SDS011;63842;52.144;5.360;2023-02-28T10:49:27;4.65;;;1.90;;
70796;SDS011;63842;52.144;5.360;2023-02-28T10:51:47;5.90;;;1.73;;
70796;SDS011;63842;52.144;5.360;2023-02-28T10:54:18;3.95;;;1.52;;
70796;SDS011;63842;52.144;5.360;2023-02-28T10:56:46;4.78;;;1.65;;
70796;SDS011;63842;52.144;5.360;2023-02-28T10:59:33;5.07;;;1.98;;
70796;SDS011;63842;52.144;5.360;2023-02-28T11:02:00;4.97;;;2.00;;
70796;SDS011;63842;52.144;5.360;2023-02-28T11:07:02;4.05;;;1.60;;
70796;SDS011;63842;52.144;5.360;2023-02-28T11:09:31;4.90;;;1.70;;
70796;SDS011;63842;52.144;5.360;2023-02-28T11:12:02;5.18;;;1.80;;
70796;SDS011;63842;52.144;5.360;2023-02-28T11:14:31;6.20;;;1.92;;
70796;SDS011;63842;52.144;5.360;2023-02-28T11:19:47;6.97;;;1.92;;
70796;SDS011;63842;52.144;5.360;2023-02-28T11:22:19;7.80;;;2.10;;
70796;SDS011;63842;52.144;5.360;2023-02-28T11:24:49;4.57;;;1.77;;
70796;SDS011;63842;52.144;5.360;2023-02-28T11:29:57;4.97;;;1.85;;
70796;SDS011;63842;52.144;5.360;2023-02-28T11:32:25;4.97;;;1.67;;
70796;SDS011;63842;52.144;5.360;2023-02-28T11:35:03;5.18;;;1.83;;
70796;SDS011;63842;52.144;5.360;2023-02-28T11:37:31;4.63;;;1.73;;
70796;SDS011;63842;52.144;5.360;2023-02-28T11:39:58;4.43;;;2.05;;
70796;SDS011;63842;52.144;5.360;2023-02-28T11:45:17;5.20;;;1.77;;
70796;SDS011;63842;52.144;5.360;2023-02-28T11:55:49;4.68;;;1.80;;
70796;SDS011;63842;52.144;5.360;2023-02-28T11:58:27;5.30;;;1.58;;
70796;SDS011;63842;52.144;5.360;2023-02-28T12:03:45;5.13;;;1.80;;
70796;SDS011;63842;52.144;5.360;2023-02-28T12:06:21;4.03;;;1.50;;
70796;SDS011;63842;52.144;5.360;2023-02-28T12:16:43;4.53;;;1.73;;
70796;SDS011;63842;52.144;5.360;2023-02-28T12:24:29;6.50;;;1.70;;
70796;SDS011;63842;52.144;5.360;2023-02-28T12:27:05;5.25;;;1.80;;
70796;SDS011;63842;52.144;5.360;2023-02-28T12:32:21;4.25;;;1.70;;
70796;SDS011;63842;52.144;5.360;2023-02-28T12:34:52;4.35;;;1.63;;
70796;SDS011;63842;52.144;5.360;2023-02-28T12:37:31;5.40;;;1.60;;
70796;SDS011;63842;52.144;5.360;2023-02-28T12:40:03;4.63;;;1.77;;
70796;SDS011;63842;52.144;5.360;2023-02-28T12:42:33;5.60;;;1.92;;
70796;SDS011;63842;52.144;5.360;2023-02-28T12:45:18;6.22;;;2.10;;
70796;SDS011;63842;52.144;5.360;2023-02-28T12:47:48;5.22;;;1.92;;
70796;SDS011;63842;52.144;5.360;2023-02-28T12:50:17;4.55;;;1.70;;
70796;SDS011;63842;52.144;5.360;2023-02-28T12:58:01;4.63;;;1.80;;
70796;SDS011;63842;52.144;5.360;2023-02-28T13:01:02;5.45;;;1.75;;
70796;SDS011;63842;52.144;5.360;2023-02-28T13:06:20;3.65;;;1.67;;
70796;SDS011;63842;52.144;5.360;2023-02-28T13:11:30;3.95;;;1.50;;
70796;SDS011;63842;52.144;5.360;2023-02-28T13:13:58;4.78;;;1.85;;
70796;SDS011;63842;52.144;5.360;2023-02-28T13:16:26;4.60;;;1.60;;
70796;SDS011;63842;52.144;5.360;2023-02-28T13:18:57;5.60;;;1.77;;
70796;SDS011;63842;52.144;5.360;2023-02-28T13:21:41;4.13;;;1.70;;
70796;SDS011;63842;52.144;5.360;2023-02-28T13:24:08;7.22;;;2.35;;
70796;SDS011;63842;52.144;5.360;2023-02-28T13:34:33;5.55;;;1.90;;
70796;SDS011;63842;52.144;5.360;2023-02-28T13:39:48;4.85;;;1.63;;
70796;SDS011;63842;52.144;5.360;2023-02-28T13:55:36;5.47;;;1.90;;
70796;SDS011;63842;52.144;5.360;2023-02-28T14:00:57;6.22;;;1.90;;
70796;SDS011;63842;52.144;5.360;2023-02-28T14:03:36;5.55;;;1.98;;
70796;SDS011;63842;52.144;5.360;2023-02-28T14:08:57;6.18;;;1.90;;
70796;SDS011;63842;52.144;5.360;2023-02-28T14:11:26;5.38;;;2.20;;
70796;SDS011;63842;52.144;5.360;2023-02-28T14:13:54;5.35;;;2.10;;
70796;SDS011;63842;52.144;5.360;2023-02-28T14:17:04;4.75;;;1.88;;
70796;SDS011;63842;52.144;5.360;2023-02-28T14:19:14;5.85;;;1.92;;
70796;SDS011;63842;52.144;5.360;2023-02-28T14:21:46;5.57;;;2.00;;
70796;SDS011;63842;52.144;5.360;2023-02-28T14:29:43;7.15;;;1.77;;
70796;SDS011;63842;52.144;5.360;2023-02-28T14:37:32;5.07;;;2.00;;
70796;SDS011;63842;52.144;5.360;2023-02-28T14:40:00;5.72;;;2.10;;
70796;SDS011;63842;52.144;5.360;2023-02-28T14:42:29;6.13;;;2.20;;
70796;SDS011;63842;52.144;5.360;2023-02-28T14:44:56;5.60;;;2.15;;
70796;SDS011;63842;52.144;5.360;2023-02-28T14:47:27;5.22;;;1.92;;
70796;SDS011;63842;52.144;5.360;2023-02-28T14:49:55;5.55;;;2.25;;
70796;SDS011;63842;52.144;5.360;2023-02-28T14:52:27;6.93;;;2.00;;
70796;SDS011;63842;52.144;5.360;2023-02-28T14:55:00;5.53;;;1.90;;
70796;SDS011;63842;52.144;5.360;2023-02-28T14:57:28;5.53;;;2.17;;
70796;SDS011;63842;52.144;5.360;2023-02-28T14:59:57;5.70;;;2.17;;
70796;SDS011;63842;52.144;5.360;2023-02-28T15:02:25;5.95;;;2.15;;
70796;SDS011;63842;52.144;5.360;2023-02-28T15:05:00;5.47;;;2.22;;
70796;SDS011;63842;52.144;5.360;2023-02-28T15:07:28;4.93;;;1.92;;
70796;SDS011;63842;52.144;5.360;2023-02-28T15:12:39;4.80;;;2.00;;
70796;SDS011;63842;52.144;5.360;2023-02-28T15:15:14;5.70;;;2.17;;
70796;SDS011;63842;52.144;5.360;2023-02-28T15:17:43;6.47;;;2.13;;
70796;SDS011;63842;52.144;5.360;2023-02-28T15:20:13;5.90;;;1.98;;
70796;SDS011;63842;52.144;5.360;2023-02-28T15:22:41;5.18;;;1.90;;
70796;SDS011;63842;52.144;5.360;2023-02-28T15:25:10;5.25;;;1.90;;
70796;SDS011;63842;52.144;5.360;2023-02-28T15:27:42;4.57;;;1.80;;
70796;SDS011;63842;52.144;5.360;2023-02-28T15:30:29;6.78;;;1.73;;
70796;SDS011;63842;52.144;5.360;2023-02-28T15:35:40;5.78;;;1.90;;
70796;SDS011;63842;52.144;5.360;2023-02-28T15:40:41;6.45;;;2.10;;
70796;SDS011;63842;52.144;5.360;2023-02-28T15:45:46;4.88;;;2.05;;
70796;SDS011;63842;52.144;5.360;2023-02-28T15:48:22;7.10;;;2.40;;
70796;SDS011;63842;52.144;5.360;2023-02-28T15:50:51;6.35;;;2.10;;
70796;SDS011;63842;52.144;5.360;2023-02-28T15:53:21;5.30;;;1.98;;
70796;SDS011;63842;52.144;5.360;2023-02-28T15:55:53;7.10;;;2.42;;
70796;SDS011;63842;52.144;5.360;2023-02-28T15:58:22;5.43;;;2.10;;
70796;SDS011;63842;52.144;5.360;2023-02-28T16:03:57;5.70;;;2.25;;
70796;SDS011;63842;52.144;5.360;2023-02-28T16:06:34;6.57;;;1.90;;
70796;SDS011;63842;52.144;5.360;2023-02-28T16:09:02;5.35;;;2.20;;
70796;SDS011;63842;52.144;5.360;2023-02-28T16:11:29;6.72;;;2.00;;
70796;SDS011;63842;52.144;5.360;2023-02-28T16:13:58;6.15;;;2.00;;
70796;SDS011;63842;52.144;5.360;2023-02-28T16:16:25;5.10;;;2.10;;
70796;SDS011;63842;52.144;5.360;2023-02-28T16:18:53;5.38;;;1.95;;
70796;SDS011;63842;52.144;5.360;2023-02-28T16:21:21;5.78;;;2.10;;
70796;SDS011;63842;52.144;5.360;2023-02-28T16:23:48;5.43;;;2.13;;
70796;SDS011;63842;52.144;5.360;2023-02-28T16:26:18;4.75;;;2.08;;
70796;SDS011;63842;52.144;5.360;2023-02-28T16:28:46;6.15;;;2.30;;
70796;SDS011;63842;52.144;5.360;2023-02-28T16:31:14;10.32;;;3.00;;
70796;SDS011;63842;52.144;5.360;2023-02-28T16:33:43;5.70;;;2.28;;
70796;SDS011;63842;52.144;5.360;2023-02-28T16:36:14;8.40;;;2.35;;
70796;SDS011;63842;52.144;5.360;2023-02-28T16:38:42;5.75;;;1.90;;
70796;SDS011;63842;52.144;5.360;2023-02-28T16:41:11;5.00;;;2.10;;
70796;SDS011;63842;52.144;5.360;2023-02-28T16:43:43;5.40;;;2.00;;
70796;SDS011;63842;52.144;5.360;2023-02-28T16:46:10;5.88;;;2.50;;
70796;SDS011;63842;52.144;5.360;2023-02-28T16:48:39;6.05;;;2.22;;
70796;SDS011;63842;52.144;5.360;2023-02-28T16:51:13;7.22;;;2.38;;
70796;SDS011;63842;52.144;5.360;2023-02-28T16:53:41;6.60;;;2.30;;
70796;SDS011;63842;52.144;5.360;2023-02-28T16:56:19;5.25;;;1.90;;
70796;SDS011;63842;52.144;5.360;2023-02-28T16:58:47;6.50;;;2.25;;
70796;SDS011;63842;52.144;5.360;2023-02-28T17:01:15;6.93;;;2.45;;
70796;SDS011;63842;52.144;5.360;2023-02-28T17:03:43;9.60;;;2.30;;
70796;SDS011;63842;52.144;5.360;2023-02-28T17:06:18;5.93;;;2.35;;
70796;SDS011;63842;52.144;5.360;2023-02-28T17:08:46;6.15;;;2.40;;
70796;SDS011;63842;52.144;5.360;2023-02-28T17:11:13;6.53;;;2.30;;
70796;SDS011;63842;52.144;5.360;2023-02-28T17:13:40;5.43;;;2.20;;
70796;SDS011;63842;52.144;5.360;2023-02-28T17:16:11;6.53;;;2.13;;
70796;SDS011;63842;52.144;5.360;2023-02-28T17:18:42;7.05;;;2.70;;
70796;SDS011;63842;52.144;5.360;2023-02-28T17:21:12;6.78;;;2.58;;
70796;SDS011;63842;52.144;5.360;2023-02-28T17:23:40;5.57;;;2.17;;
70796;SDS011;63842;52.144;5.360;2023-02-28T17:26:09;6.75;;;2.40;;
70796;SDS011;63842;52.144;5.360;2023-02-28T17:28:39;6.15;;;2.40;;
70796;SDS011;63842;52.144;5.360;2023-02-28T17:31:07;7.53;;;2.60;;
70796;SDS011;63842;52.144;5.360;2023-02-28T17:33:34;6.80;;;2.53;;
70796;SDS011;63842;52.144;5.360;2023-02-28T17:36:02;10.13;;;2.90;;
70796;SDS011;63842;52.144;5.360;2023-02-28T17:38:29;6.32;;;2.72;;
70796;SDS011;63842;52.144;5.360;2023-02-28T17:40:57;7.65;;;2.88;;